createdAt,value
2019-06-10T00:00:15.000Z,23.1
2019-06-10T00:01:21.000Z,23.1
2019-06-10T00:02:28.000Z,23.1
2019-06-10T00:03:34.000Z,23.1
2019-06-10T00:04:41.000Z,23.1
2019-06-10T00:05:47.000Z,23.1
2019-06-10T00:06:53.000Z,23.1
2019-06-10T00:08:00.000Z,23.1
2019-06-10T00:09:06.000Z,23.1
2019-06-10T00:10:13.000Z,23.1
2019-06-10T00:11:19.000Z,23.1
2019-06-10T00:12:26.000Z,23.1
2019-06-10T00:13:32.000Z,23.1
2019-06-10T00:14:39.000Z,23.1
2019-06-10T00:15:45.000Z,23.1
2019-06-10T00:16:52.000Z,23.1
2019-06-10T00:17:58.000Z,23.1
2019-06-10T00:19:04.000Z,23.1
2019-06-10T00:20:11.000Z,23.1
2019-06-10T00:21:17.000Z,23.1
2019-06-10T00:22:24.000Z,23.1
2019-06-10T00:23:30.000Z,23.1
2019-06-10T00:24:37.000Z,23.1
2019-06-10T00:25:43.000Z,23.1
2019-06-10T00:26:50.000Z,23.1
2019-06-10T00:27:56.000Z,23.1
2019-06-10T00:29:03.000Z,23.1
2019-06-10T00:30:09.000Z,23.1
2019-06-10T00:31:15.000Z,23.1
2019-06-10T00:32:22.000Z,23
2019-06-10T00:33:28.000Z,23.1
2019-06-10T00:34:35.000Z,23.1
2019-06-10T00:35:41.000Z,23
2019-06-10T00:36:48.000Z,23
2019-06-10T00:37:54.000Z,23
2019-06-10T00:39:01.000Z,23
2019-06-10T00:40:07.000Z,23
2019-06-10T00:41:14.000Z,23
2019-06-10T00:42:20.000Z,23
2019-06-10T00:43:26.000Z,23
2019-06-10T00:44:33.000Z,23
2019-06-10T00:45:39.000Z,23
2019-06-10T00:46:46.000Z,23
2019-06-10T00:47:52.000Z,23
2019-06-10T00:48:59.000Z,23
2019-06-10T00:50:05.000Z,23
2019-06-10T00:51:12.000Z,23
2019-06-10T00:53:25.000Z,23
2019-06-10T00:54:31.000Z,23
2019-06-10T00:55:37.000Z,23
2019-06-10T00:56:44.000Z,23
2019-06-10T00:57:50.000Z,23
2019-06-10T00:58:57.000Z,23
2019-06-10T01:00:03.000Z,23
2019-06-10T01:01:10.000Z,23
2019-06-10T01:02:16.000Z,23
2019-06-10T01:03:23.000Z,23
2019-06-10T01:04:29.000Z,23
2019-06-10T01:05:35.000Z,23
2019-06-10T01:06:42.000Z,23
2019-06-10T01:07:48.000Z,23
2019-06-10T01:10:01.000Z,23
2019-06-10T01:11:08.000Z,23
2019-06-10T01:12:14.000Z,23
2019-06-10T01:13:21.000Z,23
2019-06-10T01:14:27.000Z,23
2019-06-10T01:15:34.000Z,23
2019-06-10T01:17:46.000Z,23
2019-06-10T01:18:53.000Z,23
2019-06-10T01:19:59.000Z,23
2019-06-10T01:22:12.000Z,23
2019-06-10T01:23:19.000Z,23
2019-06-10T01:25:32.000Z,23
2019-06-10T01:26:38.000Z,23
2019-06-10T01:27:45.000Z,23
2019-06-10T01:29:57.000Z,23
2019-06-10T01:31:04.000Z,23
2019-06-10T01:33:17.000Z,23
2019-06-10T01:34:23.000Z,23
2019-06-10T01:35:30.000Z,23
2019-06-10T01:36:36.000Z,23
2019-06-10T01:37:43.000Z,23
2019-06-10T01:38:49.000Z,23
2019-06-10T01:39:56.000Z,23
2019-06-10T01:41:02.000Z,23
2019-06-10T01:42:08.000Z,23
2019-06-10T01:43:15.000Z,23
2019-06-10T01:44:21.000Z,23
2019-06-10T01:45:28.000Z,22.9
2019-06-10T01:46:34.000Z,22.9
2019-06-10T01:47:41.000Z,23
2019-06-10T01:48:47.000Z,23
2019-06-10T01:49:54.000Z,22.9
2019-06-10T01:51:00.000Z,23
2019-06-10T01:52:07.000Z,22.9
2019-06-10T01:53:13.000Z,22.9
2019-06-10T01:54:19.000Z,22.9
2019-06-10T01:55:26.000Z,23
2019-06-10T01:56:32.000Z,22.9
2019-06-10T01:57:39.000Z,22.9
2019-06-10T01:58:45.000Z,22.9
2019-06-10T01:59:52.000Z,22.9
2019-06-10T02:00:58.000Z,22.9
2019-06-10T02:02:05.000Z,22.9
2019-06-10T02:03:11.000Z,22.9
2019-06-10T02:05:24.000Z,23
2019-06-10T02:06:30.000Z,23
2019-06-10T02:08:43.000Z,22.9
2019-06-10T02:09:50.000Z,22.9
2019-06-10T02:10:56.000Z,22.9
2019-06-10T02:12:03.000Z,22.9
2019-06-10T02:13:09.000Z,23
2019-06-10T02:14:16.000Z,22.9
2019-06-10T02:15:22.000Z,22.9
2019-06-10T02:16:28.000Z,22.9
2019-06-10T02:17:35.000Z,22.9
2019-06-10T02:18:41.000Z,22.9
2019-06-10T02:19:48.000Z,22.9
2019-06-10T02:20:54.000Z,22.9
2019-06-10T02:22:01.000Z,22.9
2019-06-10T02:23:07.000Z,22.9
2019-06-10T02:24:14.000Z,22.9
2019-06-10T02:25:20.000Z,22.9
2019-06-10T02:26:27.000Z,22.9
2019-06-10T02:27:33.000Z,22.9
2019-06-10T02:28:39.000Z,22.9
2019-06-10T02:29:46.000Z,22.9
2019-06-10T02:30:52.000Z,22.9
2019-06-10T02:31:59.000Z,22.9
2019-06-10T02:33:05.000Z,22.9
2019-06-10T02:34:12.000Z,22.9
2019-06-10T02:35:18.000Z,22.9
2019-06-10T02:36:25.000Z,22.9
2019-06-10T02:37:31.000Z,22.9
2019-06-10T02:38:38.000Z,22.9
2019-06-10T02:39:44.000Z,22.9
2019-06-10T02:41:57.000Z,22.8
2019-06-10T02:43:03.000Z,22.8
2019-06-10T02:44:10.000Z,22.8
2019-06-10T02:45:16.000Z,22.8
2019-06-10T02:46:23.000Z,22.8
2019-06-10T02:47:29.000Z,22.8
2019-06-10T02:48:36.000Z,22.8
2019-06-10T02:49:42.000Z,22.8
2019-06-10T02:50:49.000Z,22.8
2019-06-10T02:51:55.000Z,22.8
2019-06-10T02:53:01.000Z,22.8
2019-06-10T02:54:08.000Z,22.8
2019-06-10T02:55:14.000Z,22.8
2019-06-10T02:56:21.000Z,22.8
2019-06-10T02:57:27.000Z,22.8
2019-06-10T02:58:34.000Z,22.8
2019-06-10T02:59:40.000Z,22.8
2019-06-10T03:00:47.000Z,22.8
2019-06-10T03:01:53.000Z,22.8
2019-06-10T03:03:00.000Z,22.8
2019-06-10T03:04:06.000Z,22.8
2019-06-10T03:05:12.000Z,22.8
2019-06-10T03:06:19.000Z,22.8
2019-06-10T03:07:25.000Z,22.8
2019-06-10T03:08:32.000Z,22.8
2019-06-10T03:09:38.000Z,22.8
2019-06-10T03:10:45.000Z,22.8
2019-06-10T03:11:51.000Z,22.8
2019-06-10T03:12:58.000Z,22.8
2019-06-10T03:14:04.000Z,22.8
2019-06-10T03:15:11.000Z,22.8
2019-06-10T03:16:17.000Z,22.8
2019-06-10T03:17:23.000Z,22.8
2019-06-10T03:18:30.000Z,22.8
2019-06-10T03:19:36.000Z,22.8
2019-06-10T03:20:43.000Z,22.8
2019-06-10T03:21:49.000Z,22.8
2019-06-10T03:22:56.000Z,22.8
2019-06-10T03:24:02.000Z,22.8
2019-06-10T03:25:09.000Z,22.8
2019-06-10T03:26:15.000Z,22.8
2019-06-10T03:27:22.000Z,22.8
2019-06-10T03:28:28.000Z,22.8
2019-06-10T03:29:34.000Z,22.8
2019-06-10T03:30:41.000Z,22.8
2019-06-10T03:31:47.000Z,22.8
2019-06-10T03:32:54.000Z,22.8
2019-06-10T03:34:00.000Z,22.8
2019-06-10T03:35:07.000Z,22.8
2019-06-10T03:36:13.000Z,22.8
2019-06-10T03:37:20.000Z,22.8
2019-06-10T03:38:26.000Z,22.8
2019-06-10T03:39:32.000Z,22.8
2019-06-10T03:40:39.000Z,22.8
2019-06-10T03:41:45.000Z,22.8
2019-06-10T03:42:52.000Z,22.8
2019-06-10T03:43:58.000Z,22.8
2019-06-10T03:45:05.000Z,22.8
2019-06-10T03:46:11.000Z,22.8
2019-06-10T03:47:18.000Z,22.8
2019-06-10T03:48:24.000Z,22.8
2019-06-10T03:49:31.000Z,22.8
2019-06-10T03:50:37.000Z,22.8
2019-06-10T03:51:43.000Z,22.8
2019-06-10T03:52:50.000Z,22.8
2019-06-10T03:53:56.000Z,22.8
2019-06-10T03:55:03.000Z,22.8
2019-06-10T03:56:09.000Z,22.8
2019-06-10T03:57:16.000Z,22.8
2019-06-10T03:58:22.000Z,22.8
2019-06-10T03:59:29.000Z,22.8
2019-06-10T04:00:35.000Z,22.8
2019-06-10T04:01:42.000Z,22.8
2019-06-10T04:02:48.000Z,22.8
2019-06-10T04:03:54.000Z,22.8
2019-06-10T04:05:01.000Z,22.8
2019-06-10T04:06:07.000Z,22.8
2019-06-10T04:07:14.000Z,22.8
2019-06-10T04:08:20.000Z,22.8
2019-06-10T04:09:27.000Z,22.8
2019-06-10T04:10:33.000Z,22.8
2019-06-10T04:11:40.000Z,22.8
2019-06-10T04:12:46.000Z,22.8
2019-06-10T04:13:53.000Z,22.7
2019-06-10T04:14:59.000Z,22.8
2019-06-10T04:16:05.000Z,22.8
2019-06-10T04:17:12.000Z,22.8
2019-06-10T04:18:18.000Z,22.8
2019-06-10T04:19:25.000Z,22.8
2019-06-10T04:20:31.000Z,22.8
2019-06-10T04:21:38.000Z,22.8
2019-06-10T04:22:44.000Z,22.7
2019-06-10T04:23:51.000Z,22.8
2019-06-10T04:24:57.000Z,22.8
2019-06-10T04:26:03.000Z,22.8
2019-06-10T04:27:10.000Z,22.7
2019-06-10T04:28:16.000Z,22.7
2019-06-10T04:29:23.000Z,22.7
2019-06-10T04:30:29.000Z,22.7
2019-06-10T04:31:36.000Z,22.8
2019-06-10T04:32:42.000Z,22.8
2019-06-10T04:33:49.000Z,22.8
2019-06-10T04:34:55.000Z,22.8
2019-06-10T04:36:02.000Z,22.8
2019-06-10T04:37:08.000Z,22.8
2019-06-10T04:38:14.000Z,22.7
2019-06-10T04:39:21.000Z,22.7
2019-06-10T04:40:27.000Z,22.8
2019-06-10T04:41:34.000Z,22.8
2019-06-10T04:42:40.000Z,22.7
2019-06-10T04:43:47.000Z,22.8
2019-06-10T04:44:53.000Z,22.8
2019-06-10T04:46:00.000Z,22.7
2019-06-10T04:47:06.000Z,22.7
2019-06-10T04:48:13.000Z,22.7
2019-06-10T04:49:19.000Z,22.8
2019-06-10T04:50:25.000Z,22.8
2019-06-10T04:51:32.000Z,22.8
2019-06-10T04:52:38.000Z,22.8
2019-06-10T04:53:45.000Z,22.8
2019-06-10T04:54:51.000Z,22.8
2019-06-10T04:55:58.000Z,22.8
2019-06-10T04:57:04.000Z,22.8
2019-06-10T04:58:11.000Z,22.7
2019-06-10T04:59:17.000Z,22.8
2019-06-10T05:00:23.000Z,22.8
2019-06-10T05:01:30.000Z,22.8
2019-06-10T05:02:36.000Z,22.8
2019-06-10T05:03:43.000Z,22.8
2019-06-10T05:04:49.000Z,22.8
2019-06-10T05:05:56.000Z,22.8
2019-06-10T05:07:02.000Z,22.8
2019-06-10T05:08:09.000Z,22.8
2019-06-10T05:09:15.000Z,22.8
2019-06-10T05:10:22.000Z,22.8
2019-06-10T05:11:28.000Z,22.8
2019-06-10T05:12:34.000Z,22.8
2019-06-10T05:13:41.000Z,22.8
2019-06-10T05:14:47.000Z,22.8
2019-06-10T05:15:54.000Z,22.8
2019-06-10T05:17:00.000Z,22.8
2019-06-10T05:18:07.000Z,22.8
2019-06-10T05:19:13.000Z,22.8
2019-06-10T05:20:20.000Z,22.8
2019-06-10T05:21:26.000Z,22.8
2019-06-10T05:22:32.000Z,22.8
2019-06-10T05:23:39.433Z,22.8
2019-06-10T05:24:45.000Z,22.8
2019-06-10T05:25:52.000Z,22.8
2019-06-10T05:26:58.000Z,22.8
2019-06-10T05:28:05.000Z,22.8
2019-06-10T05:29:11.000Z,22.8
2019-06-10T05:30:18.000Z,22.8
2019-06-10T05:31:24.000Z,22.8
2019-06-10T05:32:31.000Z,22.8
2019-06-10T05:33:37.000Z,22.8
2019-06-10T05:34:43.000Z,22.8
2019-06-10T05:35:50.000Z,22.8
2019-06-10T05:36:56.000Z,22.8
2019-06-10T05:38:03.000Z,22.8
2019-06-10T05:39:09.000Z,22.8
2019-06-10T05:40:16.000Z,22.8
2019-06-10T05:41:22.000Z,22.8
2019-06-10T05:42:29.000Z,22.8
2019-06-10T05:43:35.000Z,22.8
2019-06-10T05:44:41.000Z,22.8
2019-06-10T05:45:48.000Z,22.8
2019-06-10T05:46:54.000Z,22.8
2019-06-10T05:48:01.000Z,22.8
2019-06-10T05:49:07.000Z,22.8
2019-06-10T05:50:14.000Z,22.8
2019-06-10T05:51:20.000Z,22.8
2019-06-10T05:52:27.000Z,22.8
2019-06-10T05:53:33.000Z,22.8
2019-06-10T05:54:40.000Z,22.8
2019-06-10T05:55:46.000Z,22.8
2019-06-10T05:56:52.000Z,22.8
2019-06-10T05:57:59.000Z,22.8
2019-06-10T05:59:05.000Z,22.8
2019-06-10T06:00:12.000Z,22.7
2019-06-10T06:01:18.000Z,22.7
2019-06-10T06:02:25.000Z,22.7
2019-06-10T06:03:31.000Z,22.7
2019-06-10T06:04:38.000Z,22.7
2019-06-10T06:05:44.000Z,22.8
2019-06-10T06:06:51.000Z,22.7
2019-06-10T06:07:57.000Z,22.7
2019-06-10T06:09:03.000Z,22.7
2019-06-10T06:10:10.000Z,22.7
2019-06-10T06:11:16.000Z,22.7
2019-06-10T06:12:23.000Z,22.7
2019-06-10T06:13:29.000Z,22.7
2019-06-10T06:14:36.000Z,22.7
2019-06-10T06:15:42.000Z,22.7
2019-06-10T06:16:49.000Z,22.7
2019-06-10T06:17:55.000Z,22.7
2019-06-10T06:19:01.000Z,22.7
2019-06-10T06:20:08.000Z,22.7
2019-06-10T06:21:14.000Z,22.7
2019-06-10T06:22:21.000Z,22.7
2019-06-10T06:23:27.000Z,22.7
2019-06-10T06:24:34.000Z,22.7
2019-06-10T06:25:40.000Z,22.7
2019-06-10T06:26:47.000Z,22.7
2019-06-10T06:27:53.000Z,22.7
2019-06-10T06:29:00.000Z,22.7
2019-06-10T06:30:06.000Z,22.7
2019-06-10T06:31:12.000Z,22.7
2019-06-10T06:32:19.000Z,22.7
2019-06-10T06:33:25.000Z,22.7
2019-06-10T06:34:32.000Z,22.7
2019-06-10T06:35:38.000Z,22.7
2019-06-10T06:36:45.000Z,22.7
2019-06-10T06:37:51.000Z,22.7
2019-06-10T06:38:58.000Z,22.7
2019-06-10T06:40:04.000Z,22.7
2019-06-10T06:41:10.000Z,22.7
2019-06-10T06:42:17.000Z,22.7
2019-06-10T06:43:23.000Z,22.7
2019-06-10T06:44:30.000Z,22.7
2019-06-10T06:45:36.000Z,22.7
2019-06-10T06:46:43.000Z,22.7
2019-06-10T06:47:49.000Z,22.7
2019-06-10T06:48:56.000Z,22.7
2019-06-10T06:50:02.000Z,22.7
2019-06-10T06:51:09.000Z,22.7
2019-06-10T06:52:15.000Z,22.7
2019-06-10T06:53:21.000Z,22.7
2019-06-10T06:54:28.000Z,22.7
2019-06-10T06:55:34.000Z,22.7
2019-06-10T06:56:41.000Z,22.7
2019-06-10T06:57:47.000Z,22.7
2019-06-10T06:58:54.000Z,22.7
2019-06-10T07:00:00.000Z,22.7
2019-06-10T07:01:07.000Z,22.7
2019-06-10T07:02:13.000Z,22.7
2019-06-10T07:03:20.000Z,22.7
2019-06-10T07:04:26.000Z,22.7
2019-06-10T07:05:32.000Z,22.7
2019-06-10T07:06:39.000Z,22.7
2019-06-10T07:07:45.000Z,22.7
2019-06-10T07:08:52.000Z,22.7
2019-06-10T07:09:58.000Z,22.7
2019-06-10T07:11:05.000Z,22.7
2019-06-10T07:12:11.000Z,22.7
2019-06-10T07:13:18.000Z,22.7
2019-06-10T07:14:24.000Z,22.7
2019-06-10T07:15:30.000Z,22.7
2019-06-10T07:16:37.000Z,22.7
2019-06-10T07:17:43.000Z,22.7
2019-06-10T07:18:50.000Z,22.7
2019-06-10T07:19:56.000Z,22.7
2019-06-10T07:21:03.000Z,22.7
2019-06-10T07:22:09.000Z,22.7
2019-06-10T07:23:16.000Z,22.7
2019-06-10T07:24:22.000Z,22.7
2019-06-10T07:25:29.000Z,22.7
2019-06-10T07:26:35.000Z,22.7
2019-06-10T07:27:41.000Z,22.7
2019-06-10T07:28:48.000Z,22.7
2019-06-10T07:29:54.000Z,22.7
2019-06-10T07:31:01.000Z,22.7
2019-06-10T07:32:07.000Z,22.7
2019-06-10T07:33:14.000Z,22.7
2019-06-10T07:34:20.000Z,22.7
2019-06-10T07:35:27.000Z,22.7
2019-06-10T07:36:33.000Z,22.7
2019-06-10T07:37:39.000Z,22.7
2019-06-10T07:38:46.000Z,22.7
2019-06-10T07:39:52.000Z,22.7
2019-06-10T07:40:59.000Z,22.8
2019-06-10T07:42:05.000Z,22.7
2019-06-10T07:43:12.000Z,22.8
2019-06-10T07:44:18.000Z,22.8
2019-06-10T07:45:25.000Z,22.8
2019-06-10T07:46:31.000Z,22.8
2019-06-10T07:47:38.000Z,22.8
2019-06-10T07:48:44.000Z,22.8
2019-06-10T07:49:50.000Z,22.8
2019-06-10T07:50:57.000Z,22.8
2019-06-10T07:52:03.000Z,22.8
2019-06-10T07:53:10.000Z,22.8
2019-06-10T07:54:16.000Z,22.8
2019-06-10T07:55:23.000Z,22.8
2019-06-10T07:56:29.000Z,22.8
2019-06-10T07:57:36.000Z,22.8
2019-06-10T07:58:42.000Z,22.8
2019-06-10T07:59:48.000Z,22.8
2019-06-10T08:00:55.000Z,22.8
2019-06-10T08:02:01.000Z,22.8
2019-06-10T08:03:08.000Z,22.8
2019-06-10T08:04:14.000Z,22.8
2019-06-10T08:05:21.000Z,22.8
2019-06-10T08:06:27.000Z,22.8
2019-06-10T08:07:34.000Z,22.8
2019-06-10T08:08:40.000Z,22.8
2019-06-10T08:09:47.000Z,22.8
2019-06-10T08:10:53.000Z,22.8
2019-06-10T08:11:59.000Z,22.8
2019-06-10T08:13:06.000Z,22.8
2019-06-10T08:14:12.000Z,22.8
2019-06-10T08:15:19.000Z,22.9
2019-06-10T08:16:25.000Z,22.9
2019-06-10T08:17:32.000Z,22.9
2019-06-10T08:18:38.000Z,22.9
2019-06-10T08:19:45.000Z,22.9
2019-06-10T08:20:51.000Z,22.9
2019-06-10T08:21:57.000Z,22.9
2019-06-10T08:23:04.000Z,23
2019-06-10T08:24:10.000Z,23
2019-06-10T08:25:17.000Z,23
2019-06-10T08:26:23.000Z,23.1
2019-06-10T08:27:30.000Z,23.1
2019-06-10T08:28:36.000Z,23.1
2019-06-10T08:29:43.000Z,23.1
2019-06-10T08:30:49.000Z,23.1
2019-06-10T08:31:56.000Z,23.1
2019-06-10T08:33:02.000Z,23.1
2019-06-10T08:34:08.000Z,23.2
2019-06-10T08:35:15.000Z,23.2
2019-06-10T08:36:21.000Z,23.2
2019-06-10T08:37:28.000Z,23.2
2019-06-10T08:38:34.000Z,23.2
2019-06-10T08:39:41.000Z,23.2
2019-06-10T08:40:47.000Z,23.2
2019-06-10T08:41:54.000Z,23.2
2019-06-10T08:43:00.000Z,23.2
2019-06-10T08:44:07.000Z,23.2
2019-06-10T08:45:13.000Z,23.3
2019-06-10T08:46:19.000Z,23.3
2019-06-10T08:47:26.000Z,23.3
2019-06-10T08:48:32.000Z,23.3
2019-06-10T08:49:39.000Z,23.3
2019-06-10T08:50:45.000Z,23.3
2019-06-10T08:51:52.000Z,23.3
2019-06-10T08:52:58.000Z,23.3
2019-06-10T08:54:05.000Z,23.3
2019-06-10T08:55:11.000Z,23.3
2019-06-10T08:56:17.000Z,23.3
2019-06-10T08:57:24.000Z,23.3
2019-06-10T08:58:30.000Z,23.3
2019-06-10T08:59:37.000Z,23.4
2019-06-10T09:00:43.000Z,23.4
2019-06-10T09:01:50.000Z,23.4
2019-06-10T09:02:56.000Z,23.4
2019-06-10T09:04:03.000Z,23.4
2019-06-10T09:05:09.000Z,23.4
2019-06-10T09:06:16.000Z,23.4
2019-06-10T09:07:22.000Z,23.4
2019-06-10T09:08:28.000Z,23.4
2019-06-10T09:09:35.000Z,23.5
2019-06-10T09:10:41.000Z,23.4
2019-06-10T09:11:48.000Z,23.4
2019-06-10T09:12:54.000Z,23.4
2019-06-10T09:14:01.000Z,23.4
2019-06-10T09:15:07.000Z,23.4
2019-06-10T09:16:14.000Z,23.4
2019-06-10T09:17:20.000Z,23.4
2019-06-10T09:18:26.000Z,23.4
2019-06-10T09:19:33.000Z,23.4
2019-06-10T09:20:39.000Z,23.5
2019-06-10T09:21:46.000Z,23.5
2019-06-10T09:22:52.000Z,23.5
2019-06-10T09:23:59.000Z,23.5
2019-06-10T09:25:05.000Z,23.5
2019-06-10T09:26:12.000Z,23.5
2019-06-10T09:27:18.000Z,23.5
2019-06-10T09:28:25.000Z,23.5
2019-06-10T09:29:31.000Z,23.5
2019-06-10T09:30:37.000Z,23.5
2019-06-10T09:31:44.000Z,23.5
2019-06-10T09:32:50.000Z,23.5
2019-06-10T09:33:57.000Z,23.5
2019-06-10T09:35:03.000Z,23.5
2019-06-10T09:36:10.000Z,23.5
2019-06-10T09:37:16.000Z,23.5
2019-06-10T09:38:23.000Z,23.6
2019-06-10T09:39:29.000Z,23.6
2019-06-10T09:40:36.000Z,23.5
2019-06-10T09:41:42.000Z,23.6
2019-06-10T09:42:48.000Z,23.6
2019-06-10T09:43:55.000Z,23.6
2019-06-10T09:45:01.000Z,23.6
2019-06-10T09:46:08.000Z,23.6
2019-06-10T09:47:14.000Z,23.6
2019-06-10T09:48:21.000Z,23.6
2019-06-10T09:49:27.000Z,23.6
2019-06-10T09:50:34.000Z,23.6
2019-06-10T09:51:40.000Z,23.6
2019-06-10T09:52:46.000Z,23.6
2019-06-10T09:53:53.000Z,23.6
2019-06-10T09:54:59.000Z,23.6
2019-06-10T09:56:06.000Z,23.6
2019-06-10T09:57:12.000Z,23.6
2019-06-10T09:58:19.000Z,23.7
2019-06-10T09:59:25.000Z,23.7
2019-06-10T10:00:32.000Z,23.7
2019-06-10T10:01:38.000Z,23.7
2019-06-10T10:02:45.000Z,23.7
2019-06-10T10:03:51.000Z,23.7
2019-06-10T10:04:57.000Z,23.7
2019-06-10T10:06:04.000Z,23.7
2019-06-10T10:07:10.000Z,23.7
2019-06-10T10:08:17.000Z,23.7
2019-06-10T10:09:23.000Z,23.7
2019-06-10T10:10:30.000Z,23.7
2019-06-10T10:11:36.000Z,23.7
2019-06-10T10:12:43.000Z,23.7
2019-06-10T10:13:49.000Z,23.7
2019-06-10T10:14:55.000Z,23.7
2019-06-10T10:16:02.000Z,23.7
2019-06-10T10:17:08.000Z,23.8
2019-06-10T10:18:15.000Z,23.8
2019-06-10T10:19:21.000Z,23.8
2019-06-10T10:20:28.000Z,23.8
2019-06-10T10:21:34.000Z,23.8
2019-06-10T10:22:41.000Z,23.8
2019-06-10T10:23:47.000Z,23.8
2019-06-10T10:24:54.000Z,23.8
2019-06-10T10:26:00.000Z,23.8
2019-06-10T10:27:06.000Z,23.8
2019-06-10T10:28:13.000Z,23.8
2019-06-10T10:29:19.000Z,23.8
2019-06-10T10:30:26.000Z,23.8
2019-06-10T10:31:32.000Z,23.8
2019-06-10T10:32:39.000Z,23.8
2019-06-10T10:33:45.000Z,23.8
2019-06-10T10:34:52.000Z,23.8
2019-06-10T10:35:58.000Z,23.8
2019-06-10T10:37:04.000Z,23.8
2019-06-10T10:38:11.000Z,23.8
2019-06-10T10:39:17.000Z,23.8
2019-06-10T10:40:24.000Z,23.8
2019-06-10T10:41:30.000Z,23.8
2019-06-10T10:42:37.000Z,23.8
2019-06-10T10:43:43.000Z,23.8
2019-06-10T10:44:50.000Z,23.8
2019-06-10T10:45:56.000Z,23.8
2019-06-10T10:47:03.000Z,23.8
2019-06-10T10:48:09.000Z,23.9
2019-06-10T10:49:15.000Z,23.9
2019-06-10T10:50:22.000Z,23.9
2019-06-10T10:51:28.000Z,23.9
2019-06-10T10:52:35.000Z,23.9
2019-06-10T10:53:41.000Z,23.9
2019-06-10T10:54:48.000Z,23.9
2019-06-10T10:55:54.000Z,23.9
2019-06-10T10:57:01.000Z,23.9
2019-06-10T10:58:07.000Z,23.9
2019-06-10T10:59:14.000Z,23.9
2019-06-10T11:00:20.000Z,23.9
2019-06-10T11:01:26.000Z,23.9
2019-06-10T11:02:33.000Z,23.9
2019-06-10T11:03:39.000Z,23.9
2019-06-10T11:04:46.000Z,23.9
2019-06-10T11:05:52.000Z,23.9
2019-06-10T11:08:05.000Z,23.9
2019-06-10T11:09:12.000Z,23.9
2019-06-10T11:11:24.000Z,23.9
2019-06-10T11:12:31.000Z,23.9
2019-06-10T11:13:37.000Z,23.9
2019-06-10T11:14:44.000Z,23.9
2019-06-10T11:15:50.000Z,23.9
2019-06-10T11:16:57.000Z,23.9
2019-06-10T11:18:03.000Z,23.9
2019-06-10T11:20:16.000Z,23.9
2019-06-10T11:21:23.000Z,23.9
2019-06-10T11:22:29.000Z,23.9
2019-06-10T11:23:35.000Z,24
2019-06-10T11:24:42.000Z,24
2019-06-10T11:25:48.000Z,23.8
2019-06-10T11:26:55.000Z,23.6
2019-06-10T11:28:01.000Z,23.5
2019-06-10T11:29:08.000Z,23.5
2019-06-10T11:31:21.000Z,23.5
2019-06-10T11:32:27.000Z,23.3
2019-06-10T11:33:33.000Z,23.2
2019-06-10T11:35:46.000Z,23.1
2019-06-10T11:36:53.000Z,23.2
2019-06-10T11:37:59.000Z,23.1
2019-06-10T11:39:06.000Z,23
2019-06-10T11:40:12.000Z,23
2019-06-10T11:42:25.000Z,23.1
2019-06-10T11:43:32.000Z,23
2019-06-10T11:44:38.000Z,23
2019-06-10T11:45:44.000Z,23.1
2019-06-10T11:46:51.000Z,23.1
2019-06-10T11:47:57.000Z,23.2
2019-06-10T11:49:04.000Z,23.3
2019-06-10T11:51:17.000Z,23.3
2019-06-10T11:52:23.000Z,23.2
2019-06-10T11:53:30.000Z,23.1
2019-06-10T11:55:43.000Z,23.2
2019-06-10T11:56:49.000Z,23.2
2019-06-10T11:57:55.000Z,23.3
2019-06-10T11:59:02.000Z,23.4
2019-06-10T12:00:08.000Z,23.5
2019-06-10T12:01:15.000Z,23.6
2019-06-10T12:02:21.000Z,23.6
2019-06-10T12:03:28.000Z,23.7
2019-06-10T12:04:34.000Z,23.7
2019-06-10T12:05:41.000Z,23.8
2019-06-10T12:06:47.000Z,23.8
2019-06-10T12:07:53.000Z,23.9
2019-06-10T12:09:00.000Z,23.9
2019-06-10T12:10:06.000Z,23.9
2019-06-10T12:11:13.000Z,24
2019-06-10T12:12:19.000Z,24
2019-06-10T12:14:32.000Z,24
2019-06-10T12:15:39.000Z,24
2019-06-10T12:16:45.000Z,24
2019-06-10T12:17:52.000Z,24
2019-06-10T12:18:58.000Z,24
2019-06-10T12:20:04.000Z,24.1
2019-06-10T12:21:11.000Z,24.1
2019-06-10T12:22:17.000Z,24.1
2019-06-10T12:23:24.000Z,24.1
2019-06-10T12:24:30.000Z,24.1
2019-06-10T12:25:37.000Z,24.1
2019-06-10T12:26:43.000Z,24.2
2019-06-10T12:27:50.000Z,24.2
2019-06-10T12:28:56.000Z,24.2
2019-06-10T12:30:02.000Z,24.2
2019-06-10T12:31:09.000Z,24.2
2019-06-10T12:32:15.000Z,24.2
2019-06-10T12:33:22.000Z,24.2
2019-06-10T12:34:28.000Z,24.2
2019-06-10T12:35:35.000Z,24.2
2019-06-10T12:36:41.000Z,24.2
2019-06-10T12:37:48.000Z,24.2
2019-06-10T12:38:54.000Z,24.3
2019-06-10T12:40:01.000Z,24.3
2019-06-10T12:41:07.000Z,24.3
2019-06-10T12:42:13.000Z,24.3
2019-06-10T12:43:20.000Z,24.3
2019-06-10T12:44:26.000Z,24.3
2019-06-10T12:45:33.000Z,24.3
2019-06-10T12:46:39.000Z,24.3
2019-06-10T12:47:46.000Z,24.3
2019-06-10T12:48:52.000Z,24.4
2019-06-10T12:52:12.000Z,24.4
2019-06-10T12:53:18.000Z,24.4
2019-06-10T12:55:31.000Z,24.4
2019-06-10T12:56:37.000Z,24.3
2019-06-10T12:57:44.000Z,24.4
2019-06-10T12:58:50.000Z,24.4
2019-06-10T12:59:57.000Z,24.4
2019-06-10T13:01:03.000Z,24.4
2019-06-10T13:02:10.000Z,24.4
2019-06-10T13:03:16.000Z,24.4
2019-06-10T13:04:22.000Z,24.4
2019-06-10T13:05:29.000Z,24.4
2019-06-10T13:06:35.000Z,24.4
2019-06-10T13:07:42.000Z,24.4
2019-06-10T13:08:48.000Z,24.4
2019-06-10T13:09:55.000Z,24.4
2019-06-10T13:11:01.000Z,24.4
2019-06-10T13:12:08.000Z,24.5
2019-06-10T13:13:14.000Z,24.5
2019-06-10T13:14:21.000Z,24.4
2019-06-10T13:15:27.000Z,24.5
2019-06-10T13:16:33.000Z,24.5
2019-06-10T13:17:40.000Z,24.5
2019-06-10T13:19:53.000Z,24.4
2019-06-10T13:20:59.000Z,24.5
2019-06-10T13:22:06.000Z,24.5
2019-06-10T13:23:12.000Z,24.5
2019-06-10T13:24:19.000Z,24.5
2019-06-10T13:25:25.000Z,24.5
2019-06-10T13:26:31.000Z,24.5
2019-06-10T13:27:38.000Z,24.5
2019-06-10T13:28:44.000Z,24.5
2019-06-10T13:30:57.000Z,24.5
2019-06-10T13:32:04.000Z,24.5
2019-06-10T13:33:10.000Z,24.5
2019-06-10T13:35:23.000Z,24.5
2019-06-10T13:36:30.000Z,24.5
2019-06-10T13:37:36.000Z,24.5
2019-06-10T13:38:42.000Z,24.5
2019-06-10T13:39:49.000Z,24.5
2019-06-10T13:40:55.000Z,24.5
2019-06-10T13:43:08.000Z,24.5
2019-06-10T13:44:15.000Z,24.5
2019-06-10T13:45:21.000Z,24.5
2019-06-10T13:47:34.000Z,24.5
2019-06-10T13:48:41.000Z,24.5
2019-06-10T13:49:47.000Z,24.5
2019-06-10T13:50:53.000Z,24.5
2019-06-10T13:52:00.000Z,24.4
2019-06-10T13:53:06.000Z,24.4
2019-06-10T13:55:19.000Z,24.4
2019-06-10T13:56:26.000Z,24.4
2019-06-10T13:57:32.000Z,24.4
2019-06-10T13:59:45.000Z,24.5
2019-06-10T14:00:52.000Z,24.4
2019-06-10T14:01:58.000Z,24.4
2019-06-10T14:03:04.000Z,24.4
2019-06-10T14:04:11.000Z,24.4
2019-06-10T14:05:17.000Z,24.4
2019-06-10T14:06:24.000Z,24.4
2019-06-10T14:07:30.000Z,24.4
2019-06-10T14:08:37.000Z,24.4
2019-06-10T14:09:43.000Z,24.4
2019-06-10T14:10:50.000Z,24.4
2019-06-10T14:11:56.000Z,24.5
2019-06-10T14:13:02.000Z,24.5
2019-06-10T14:14:09.000Z,24.5
2019-06-10T14:15:15.000Z,24.4
2019-06-10T14:16:22.000Z,24.4
2019-06-10T14:17:28.000Z,24.5
2019-06-10T14:18:35.000Z,24.5
2019-06-10T14:19:41.000Z,24.5
2019-06-10T14:20:48.000Z,24.5
2019-06-10T14:21:54.000Z,24.5
2019-06-10T14:23:01.000Z,24.6
2019-06-10T14:24:07.000Z,24.6
2019-06-10T14:25:13.000Z,24.6
2019-06-10T14:27:26.000Z,24.6
2019-06-10T14:28:33.000Z,24.6
2019-06-10T14:29:39.000Z,24.6
2019-06-10T14:30:46.000Z,24.5
2019-06-10T14:31:52.000Z,24.6
2019-06-10T14:32:59.000Z,24.5
2019-06-10T14:34:05.000Z,24.5
2019-06-10T14:35:12.000Z,24.6
2019-06-10T14:36:18.000Z,24.6
2019-06-10T14:37:24.000Z,24.5
2019-06-10T14:38:31.000Z,24.6
2019-06-10T14:39:37.000Z,24.6
2019-06-10T14:40:44.000Z,24.5
2019-06-10T14:41:50.000Z,24.5
2019-06-10T14:42:57.000Z,24.5
2019-06-10T14:44:03.000Z,24.6
2019-06-10T14:45:10.000Z,24.7
2019-06-10T14:47:23.000Z,24.8
2019-06-10T14:48:29.000Z,24.8
2019-06-10T14:50:42.000Z,24.9
2019-06-10T14:51:48.000Z,24.9
2019-06-10T14:54:01.000Z,25
2019-06-10T14:55:08.000Z,25
2019-06-10T14:56:14.000Z,25
2019-06-10T14:57:21.000Z,25
2019-06-10T14:58:27.000Z,25.1
2019-06-10T15:00:40.000Z,25.1
2019-06-10T15:01:46.000Z,25.1
2019-06-10T15:02:53.000Z,25.1
2019-06-10T15:05:06.000Z,25.2
2019-06-10T15:06:12.000Z,25.2
2019-06-10T15:07:19.000Z,25.2
2019-06-10T15:08:25.000Z,25.2
2019-06-10T15:09:32.000Z,25.2
2019-06-10T15:11:44.000Z,25.2
2019-06-10T15:12:51.000Z,25.2
2019-06-10T15:13:57.000Z,25.3
2019-06-10T15:15:04.000Z,25.3
2019-06-10T15:16:10.000Z,25.3
2019-06-10T15:17:17.000Z,25.3
2019-06-10T15:18:23.000Z,25.3
2019-06-10T15:19:30.000Z,25.3
2019-06-10T15:20:36.000Z,25.3
2019-06-10T15:22:49.000Z,25.4
2019-06-10T15:23:55.000Z,25.4
2019-06-10T15:27:15.000Z,25.4
2019-06-10T15:29:28.000Z,25.5
2019-06-10T15:30:34.000Z,25.4
2019-06-10T15:31:41.000Z,25.4
2019-06-10T15:32:47.000Z,25.4
2019-06-10T15:33:54.000Z,25.4
2019-06-10T15:35:00.000Z,25.3